La Mesa, New Mexico
Current Conditions -  °F | °C
As of 11:35 PM on Thursday 18 Dec 2014 (Local Time) from KLRU Reporting Station
Scattered Clouds Scattered Clouds  
Wind Chill: 36°   Ceiling: Unl
Heat Index: 39°   Visibility: 10mi
Dew Point: 37°   Wind: 5mph
Humidity: 93%   Direction: 290°WNW
Pressure: 30.16"   Gusts: NA
Location:  32.12°N, 106.71°W
Report Text: KLRU 190635Z AUTO 29004KT 10SM SCT006 SCT090 04/03 A3016 RMK AO2 T00400030
Loading
Personal Weather Stations






























Interactive Weather Map New forecast layout! Learn more

10-Day Weather Forecast

Advertisements
Track Severe Weather on mobile